Decoded Metar for LIPY (FALCONARA (IT-AF in ITALY) (IATA:N/A) | Meteo·Mobile Aviation Weather
aviador You're here:

LIPY Decoded Metar

FALCONARA (IT-AF in ITALY
Report Time2019-01-20 09:50:00
UTC Time2019-01-20 10:54:51
Flight Rules vfr VFR
WindVRB at 03 kt
Visibility9999 m
Phenomena:N/A
Clouds:Scattered 028 Hf
Broken 070 Hf
Expected CloudBase > 1,200 ft AGL from Temp-Dew spread
Ceiling7,000 ft
Temp07°C (ISA -8)
Dew Point04°C (81% RH)
AAT4.6°C
QNH1015 hPa
Density Alt-879 ft
Elevation33 ft
Report Wrong Elevation
Raw Report
LIPY 200950Z VRB03KT 9999 SCT028 BKN070 07/04 Q1015=

Extra information for LIPY:More info

Metar Taf Metar & Taf Last 4 Metars F.Rules Stats Wind Profile Meteogram Temp Stats Airport Information Weather charts Add Link Nearby VenuesMetar ALERT Operation Metar Decoded Social comments